地図

経路データ

SID SEASON NUMBER BASIN SUBBASIN NAME ISO_TIME NATURE LAT LON WMO_WIND WMO_PRES WMO_AGENCY TRACK_TYPE DIST2LAND LANDFALL IFLAG USA_AGENCY USA_ATCF_ID USA_LAT USA_LON USA_RECORD USA_STATUS USA_WIND USA_PRES USA_SSHS USA_R34_NE USA_R34_SE USA_R34_SW USA_R34_NW USA_R50_NE USA_R50_SE USA_R50_SW USA_R50_NW USA_R64_NE USA_R64_SE USA_R64_SW USA_R64_NW USA_POCI USA_ROCI USA_RMW USA_EYE TOKYO_LAT TOKYO_LON TOKYO_GRADE TOKYO_WIND TOKYO_PRES TOKYO_R50_DIR TOKYO_R50_LONG TOKYO_R50_SHORT TOKYO_R30_DIR TOKYO_R30_LONG TOKYO_R30_SHORT TOKYO_LAND CMA_LAT CMA_LON CMA_CAT CMA_WIND CMA_PRES HKO_LAT HKO_LON HKO_CAT HKO_WIND HKO_PRES NEWDELHI_LAT NEWDELHI_LON NEWDELHI_GRADE NEWDELHI_WIND NEWDELHI_PRES NEWDELHI_CI NEWDELHI_DP NEWDELHI_POCI REUNION_LAT REUNION_LON REUNION_TYPE REUNION_WIND REUNION_PRES REUNION_TNUM REUNION_CI REUNION_RMW REUNION_R34_NE REUNION_R34_SE REUNION_R34_SW REUNION_R34_NW REUNION_R50_NE REUNION_R50_SE REUNION_R50_SW REUNION_R50_NW REUNION_R64_NE REUNION_R64_SE REUNION_R64_SW REUNION_R64_NW BOM_LAT BOM_LON BOM_TYPE BOM_WIND BOM_PRES BOM_TNUM BOM_CI BOM_RMW BOM_R34_NE BOM_R34_SE BOM_R34_SW BOM_R34_NW BOM_R50_NE BOM_R50_SE BOM_R50_SW BOM_R50_NW BOM_R64_NE BOM_R64_SE BOM_R64_SW BOM_R64_NW BOM_ROCI BOM_POCI BOM_EYE BOM_POS_METHOD BOM_PRES_METHOD NADI_LAT NADI_LON NADI_CAT NADI_WIND NADI_PRES WELLINGTON_LAT WELLINGTON_LON WELLINGTON_WIND WELLINGTON_PRES DS824_LAT DS824_LON DS824_STAGE DS824_WIND DS824_PRES TD9636_LAT TD9636_LON TD9636_STAGE TD9636_WIND TD9636_PRES TD9635_LAT TD9635_LON TD9635_WIND TD9635_PRES TD9635_ROCI NEUMANN_LAT NEUMANN_LON NEUMANN_CLASS NEUMANN_WIND NEUMANN_PRES MLC_LAT MLC_LON MLC_CLASS MLC_WIND MLC_PRES USA_GUST BOM_GUST BOM_GUST_PER REUNION_GUST REUNION_GUST_PER USA_SEAHGT USA_SEARAD_NE USA_SEARAD_SE USA_SEARAD_SW USA_SEARAD_NW STORM_SPEED STORM_DIR
1970255N26283 1970 112 NA NA FELICE 1970-09-12 00:00:00 TS 25.5000 -77.5000 25 hurdat_atl main 67 45 O_____________ hurdat_atl AL131970 25.5000 -77.5000 TD 25 -1 3 247
1970255N26283 1970 112 NA NA FELICE 1970-09-12 03:00:00 TS 25.4376 -77.6626 main 45 39 P_____________ AL131970 25.4376 -77.6626 TD 25 -1 3 250
1970255N26283 1970 112 NA NA FELICE 1970-09-12 06:00:00 TS 25.4000 -77.8000 25 hurdat_atl main 39 34 O_____________ hurdat_atl AL131970 25.4000 -77.8000 TD 25 -1 2 260
1970255N26283 1970 112 NA NA FELICE 1970-09-12 09:00:00 TS 25.4000 -77.8999 main 34 33 P_____________ AL131970 25.4000 -77.8999 TD 25 -1 2 270
1970255N26283 1970 112 NA NA FELICE 1970-09-12 12:00:00 TS 25.4000 -78.0000 25 hurdat_atl main 33 33 O_____________ hurdat_atl AL131970 25.4000 -78.0000 TD 25 -1 2 258
1970255N26283 1970 112 NA NA FELICE 1970-09-12 15:00:00 TS 25.3500 -78.1500 main 34 24 P_____________ AL131970 25.3500 -78.1500 TD 25 -1 3 250
1970255N26283 1970 112 NA NA FELICE 1970-09-12 18:00:00 TS 25.3000 -78.3000 25 hurdat_atl main 30 30 O_____________ hurdat_atl AL131970 25.3000 -78.3000 TD 25 -1 2 256
1970255N26283 1970 112 NA NA FELICE 1970-09-12 21:00:00 TS 25.2999 -78.3774 main 37 37 P_____________ AL131970 25.2999 -78.3774 TD 25 -1 2 270
1970255N26283 1970 112 NA NA FELICE 1970-09-13 00:00:00 TS 25.3000 -78.5000 25 hurdat_atl main 46 46 O_____________ hurdat_atl AL131970 25.3000 -78.5000 TD 25 -1 3 264
1970255N26283 1970 112 NA NA FELICE 1970-09-13 03:00:00 TS 25.2649 -78.7474 main 64 64 P_____________ AL131970 25.2649 -78.7474 TD 25 -1 6 260
1970255N26283 1970 112 NA NA FELICE 1970-09-13 06:00:00 TS 25.2000 -79.1000 25 hurdat_atl main 90 90 O_____________ hurdat_atl AL131970 25.2000 -79.1000 TD 25 -1 7 257
1970255N26283 1970 112 NA NA FELICE 1970-09-13 09:00:00 TS 25.1000 -79.5201 main 90 41 P_____________ AL131970 25.1000 -79.5201 TD 25 -1 8 256
1970255N26283 1970 112 NA NA FELICE 1970-09-13 12:00:00 TS 25.0000 -80.0000 25 hurdat_atl main 41 11 O_____________ hurdat_atl AL131970 25.0000 -80.0000 TD 25 -1 9 260
1970255N26283 1970 112 NA NA FELICE 1970-09-13 15:00:00 TS 24.9424 -80.4924 main 24 22 P_____________ AL131970 24.9424 -80.4924 TD 27 -1 9 264
1970255N26283 1970 112 NA GM FELICE 1970-09-13 18:00:00 TS 24.9000 -81.0000 30 hurdat_atl main 24 22 O_____________ hurdat_atl AL131970 24.9000 -81.0000 TD 30 -1 9 263
1970255N26283 1970 112 NA GM FELICE 1970-09-13 21:00:00 TS 24.8348 -81.5001 main 52 52 P_____________ AL131970 24.8348 -81.5001 TD 30 -1 9 264
1970255N26283 1970 112 NA GM FELICE 1970-09-14 00:00:00 TS 24.8000 -82.0000 30 1011 hurdat_atl main 92 92 O_____________ hurdat_atl AL131970 24.8000 -82.0000 TD 30 1011 -1 9 269
1970255N26283 1970 112 NA GM FELICE 1970-09-14 03:00:00 TS 24.8123 -82.5001 main 138 138 P_____________ AL131970 24.8123 -82.5001 TD 30 -1 9 276
1970255N26283 1970 112 NA GM FELICE 1970-09-14 06:00:00 TS 24.9000 -83.0000 30 hurdat_atl main 171 171 O_____________ hurdat_atl AL131970 24.9000 -83.0000 TD 30 -1 9 286
1970255N26283 1970 112 NA GM FELICE 1970-09-14 09:00:00 TS 25.0697 -83.4851 main 201 201 P_____________ AL131970 25.0697 -83.4851 TD 30 -1 10 294
1970255N26283 1970 112 NA GM FELICE 1970-09-14 12:00:00 TS 25.3000 -84.0000 30 hurdat_atl main 237 237 O_____________ hurdat_atl AL131970 25.3000 -84.0000 TD 30 -1 11 295
1970255N26283 1970 112 NA GM FELICE 1970-09-14 15:00:00 TS 25.5273 -84.5779 main 271 265 P_____________ AL131970 25.5273 -84.5779 TD 30 -1 12 295
1970255N26283 1970 112 NA GM FELICE 1970-09-14 18:00:00 TS 25.8000 -85.2000 30 1008 hurdat_atl main 307 307 O_____________ hurdat_atl AL131970 25.8000 -85.2000 TD 30 1008 -1 13 299
1970255N26283 1970 112 NA GM FELICE 1970-09-14 21:00:00 TS 26.1341 -85.7980 main 344 340 P_____________ AL131970 26.1341 -85.7980 TD 37 1007 0 14 301
1970255N26283 1970 112 NA GM FELICE 1970-09-15 00:00:00 TS 26.5000 -86.5000 45 1006 hurdat_atl main 373 296 O_____________ hurdat_atl AL131970 26.5000 -86.5000 TS 45 1006 0 16 296
1970255N26283 1970 112 NA GM FELICE 1970-09-15 03:00:00 TS 26.8428 -87.4128 main 296 215 P_____________ AL131970 26.8428 -87.4128 TS 47 1006 0 18 292
1970255N26283 1970 112 NA GM FELICE 1970-09-15 06:00:00 TS 27.2000 -88.4000 50 1006 hurdat_atl main 212 156 O_____________ hurdat_atl AL131970 27.2000 -88.4000 TS 50 1006 0 18 294
1970255N26283 1970 112 NA GM FELICE 1970-09-15 09:00:00 TS 27.5915 -89.2932 main 157 122 P_____________ AL131970 27.5915 -89.2932 TS 50 1004 0 18 297
1970255N26283 1970 112 NA GM FELICE 1970-09-15 12:00:00 TS 28.0000 -90.2000 50 1003 hurdat_atl main 122 80 O_____________ hurdat_atl AL131970 28.0000 -90.2000 TS 50 1003 0 19 296
1970255N26283 1970 112 NA GM FELICE 1970-09-15 15:00:00 TS 28.4147 -91.1926 main 83 77 P_____________ AL131970 28.4147 -91.1926 TS 52 1000 0 19 294
1970255N26283 1970 112 NA GM FELICE 1970-09-15 18:00:00 TS 28.8000 -92.2000 55 998 hurdat_atl main 78 62 O_____________ hurdat_atl AL131970 28.8000 -92.2000 TS 55 998 0 19 292
1970255N26283 1970 112 NA GM FELICE 1970-09-15 21:00:00 TS 29.1224 -93.1955 main 72 33 P_____________ AL131970 29.1224 -93.1955 TS 57 997 0 18 290
1970255N26283 1970 112 NA GM FELICE 1970-09-16 00:00:00 TS 29.4000 -94.1000 60 997 hurdat_atl main 33 0 O_____________ hurdat_atl AL131970 29.4000 -94.1000 TS 60 997 0 15 290
1970255N26283 1970 112 NA GM FELICE 1970-09-16 03:00:00 TS 29.6419 -94.8683 main 9 0 P_____________ AL131970 29.6419 -94.8683 TS 50 0 13 292
1970255N26283 1970 112 NA NA FELICE 1970-09-16 06:00:00 TS 29.9000 -95.5000 40 hurdat_atl main 0 0 O_____________ hurdat_atl AL131970 29.9000 -95.5000 TS 40 0 12 300
1970255N26283 1970 112 NA NA FELICE 1970-09-16 09:00:00 TS 30.2272 -96.0601 main 0 0 P_____________ AL131970 30.2272 -96.0601 TS 35 0 11 309
1970255N26283 1970 112 NA NA FELICE 1970-09-16 12:00:00 TS 30.6000 -96.5000 30 hurdat_atl main 0 0 O_____________ hurdat_atl AL131970 30.6000 -96.5000 TD 30 -1 10 319
1970255N26283 1970 112 NA NA FELICE 1970-09-16 15:00:00 TS 30.9923 -96.8453 main 0 0 P_____________ AL131970 30.9923 -96.8453 TD 30 -1 10 327
1970255N26283 1970 112 NA NA FELICE 1970-09-16 18:00:00 TS 31.4000 -97.1000 30 1006 hurdat_atl main 0 0 O_____________ hurdat_atl AL131970 31.4000 -97.1000 TD 30 1006 -1 9 332
1970255N26283 1970 112 NA NA FELICE 1970-09-16 21:00:00 TS 31.8000 -97.3376 main 0 0 P_____________ AL131970 31.8000 -97.3376 TD 27 -1 9 337
1970255N26283 1970 112 NA NA FELICE 1970-09-17 00:00:00 TS 32.2000 -97.5000 25 hurdat_atl main 0 0 O_____________ hurdat_atl AL131970 32.2000 -97.5000 TD 25 -1 8 344
1970255N26283 1970 112 NA NA FELICE 1970-09-17 03:00:00 TS 32.5999 -97.6098 main 0 0 P_____________ AL131970 32.5999 -97.6098 TD 25 -1 8 354
1970255N26283 1970 112 NA NA FELICE 1970-09-17 06:00:00 TS 33.0000 -97.6000 25 hurdat_atl main 0 0 O_____________ hurdat_atl AL131970 33.0000 -97.6000 TD 25 -1 8 10
1970255N26283 1970 112 NA NA FELICE 1970-09-17 09:00:00 TS 33.4002 -97.4432 main 0 0 P_____________ AL131970 33.4002 -97.4432 TD 25 -1 9 23
1970255N26283 1970 112 NA NA FELICE 1970-09-17 12:00:00 TS 33.8000 -97.2000 25 hurdat_atl main 0 O_____________ hurdat_atl AL131970 33.8000 -97.2000 TD 25 -1 9 27

IBTrACS Databaseについて

本データベースは、米国NOAAが公開する1842年以降の世界の熱帯低気圧のベストトラックデータアーカイブInternational Best Track Archive for Climate Stewardship (IBTrACS)を、ウェブで閲覧しやすい形式に変換したものです。

最終更新日:2021-12-01